Time;durP1;ratioP1;P1;durP2;ratioP2;P2;SDS_P1;SDS_P2;PMS_P1;PMS_P2;Temp;Humidity;BMP_temperature;BMP_pressure;BME280_temperature;BME280_humidity;BME280_pressure;Samples;Min_cycle;Max_cycle;Signal;HPM_P1;HPM_P2
2021/09/17 00:00:36;;;;;;;;;;;22.60;99.90;;;;;;5091582;28;19927;-53
2021/09/17 00:03:40;;;;;;;;;;;22.60;99.90;;;;;;5092927;28;19923;-56
2021/09/17 00:06:45;;;;;;;;;;;22.60;99.90;;;;;;5092092;28;19939;-57
2021/09/17 00:09:48;;;;;;;;;;;22.50;99.90;;;;;;5091231;28;19924;-56
2021/09/17 00:12:53;;;;;;;;;;;22.50;99.90;;;;;;5092077;28;19945;-55
2021/09/17 00:15:57;;;;;;;;;;;22.50;99.90;;;;;;5091589;28;20342;-53
2021/09/17 00:19:01;;;;;;;;;;;22.50;99.90;;;;;;5091099;28;19923;-55
2021/09/17 00:22:05;;;;;;;;;;;22.30;99.90;;;;;;5091538;28;19938;-54
2021/09/17 00:25:11;;;;;;;;;;;22.20;99.90;;;;;;5092385;28;19916;-54
2021/09/17 00:28:15;;;;;;;;;;;22.30;99.90;;;;;;5090991;28;19919;-55
2021/09/17 00:31:19;;;;;;;;;;;22.30;99.90;;;;;;5091727;28;19924;-56
2021/09/17 00:34:24;;;;;;;;;;;22.30;99.90;;;;;;5092123;28;19923;-56
2021/09/17 00:37:28;;;;;;;;;;;22.20;99.90;;;;;;5090064;28;19923;-57
2021/09/17 00:40:32;;;;;;;;;;;22.20;99.90;;;;;;5091596;28;19920;-52
2021/09/17 00:43:37;;;;;;;;;;;22.10;99.90;;;;;;5092354;28;19935;-56
2021/09/17 00:46:41;;;;;;;;;;;22.10;99.90;;;;;;5090873;28;19923;-52
2021/09/17 00:49:45;;;;;;;;;;;21.90;99.90;;;;;;5091020;28;19923;-56
2021/09/17 00:52:50;;;;;;;;;;;21.90;99.90;;;;;;5091703;28;20389;-52
2021/09/17 00:55:53;;;;;;;;;;;21.80;99.90;;;;;;5090774;28;19923;-55
2021/09/17 00:58:58;;;;;;;;;;;21.70;99.90;;;;;;5090794;28;20440;-54
2021/09/17 01:02:03;;;;;;;;;;;21.70;99.90;;;;;;5091466;28;20301;-52
2021/09/17 01:05:09;;;;;;;;;;;21.70;99.90;;;;;;5090985;28;19919;-54
2021/09/17 01:08:13;;;;;;;;;;;21.60;99.90;;;;;;5090258;28;19919;-57
2021/09/17 01:11:17;;;;;;;;;;;21.50;99.90;;;;;;5091440;28;19955;-56
2021/09/17 01:14:34;;;;;;;;;;;21.30;99.90;;;;;;5091138;28;20393;-52
2021/09/17 01:17:39;;;;;;;;;;;21.30;99.90;;;;;;5089756;28;19923;-56
2021/09/17 01:20:43;;;;;;;;;;;21.20;99.90;;;;;;5090915;28;19927;-56
2021/09/17 01:23:48;;;;;;;;;;;21.10;99.90;;;;;;5090876;28;19920;-54
2021/09/17 01:26:52;;;;;;;;;;;21.10;99.90;;;;;;5089676;28;20393;-51
2021/09/17 01:29:57;;;;;;;;;;;21.10;99.90;;;;;;5090058;28;19919;-53
2021/09/17 01:33:01;;;;;;;;;;;21.10;99.90;;;;;;5090349;28;20519;-55
2021/09/17 01:36:07;;;;;;;;;;;21.10;99.90;;;;;;5089611;28;19923;-52
2021/09/17 01:39:11;;;;;;;;;;;21.00;99.90;;;;;;5089306;28;19931;-53
2021/09/17 01:42:15;;;;;;;;;;;21.00;99.90;;;;;;5090487;28;19923;-56
2021/09/17 01:45:19;;;;;;;;;;;21.00;99.90;;;;;;5089774;28;19919;-56
2021/09/17 01:48:27;;;;;;;;;;;21.00;99.90;;;;;;5089115;28;19920;-56
2021/09/17 01:51:31;;;;;;;;;;;21.00;99.90;;;;;;5090155;28;19923;-52
2021/09/17 01:54:36;;;;;;;;;;;20.90;99.90;;;;;;5088658;28;20393;-52
2021/09/17 01:57:39;;;;;;;;;;;20.90;99.90;;;;;;5089150;28;20294;-52
2021/09/17 02:00:45;;;;;;;;;;;20.80;99.90;;;;;;5089679;28;19973;-53
2021/09/17 02:03:49;;;;;;;;;;;20.90;99.90;;;;;;5087220;28;19919;-55
2021/09/17 02:06:54;;;;;;;;;;;20.90;99.90;;;;;;5083225;28;19924;-55
2021/09/17 02:09:57;;;;;;;;;;;20.90;99.90;;;;;;5089841;28;19919;-57
2021/09/17 02:13:02;;;;;;;;;;;21.00;99.90;;;;;;5069921;28;19923;-56
2021/09/17 02:16:06;;;;;;;;;;;21.10;99.90;;;;;;5084862;28;19923;-56
2021/09/17 02:19:09;;;;;;;;;;;21.00;99.90;;;;;;5089687;28;20297;-55
2021/09/17 02:22:13;;;;;;;;;;;20.90;99.90;;;;;;5090061;28;20385;-55
2021/09/17 02:25:18;;;;;;;;;;;20.80;99.90;;;;;;5088611;28;19935;-57
2021/09/17 02:28:21;;;;;;;;;;;20.70;99.90;;;;;;5088078;28;20289;-55
2021/09/17 02:31:25;;;;;;;;;;;20.60;99.90;;;;;;5089537;28;20285;-55
2021/09/17 02:34:30;;;;;;;;;;;20.60;99.90;;;;;;5087822;28;19935;-56
2021/09/17 02:37:35;;;;;;;;;;;20.60;99.90;;;;;;5088554;28;19998;-57
2021/09/17 02:40:39;;;;;;;;;;;20.60;99.90;;;;;;5090022;28;19999;-51
2021/09/17 02:43:44;;;;;;;;;;;20.70;99.90;;;;;;5089262;28;19935;-57
2021/09/17 02:46:48;;;;;;;;;;;20.70;99.90;;;;;;5087574;28;19919;-52
2021/09/17 02:49:52;;;;;;;;;;;20.70;99.90;;;;;;5089542;28;19919;-56
2021/09/17 02:52:56;;;;;;;;;;;20.70;99.90;;;;;;5088953;28;19923;-54
2021/09/17 02:56:00;;;;;;;;;;;20.60;99.90;;;;;;5088579;28;19919;-56
2021/09/17 02:59:04;;;;;;;;;;;20.50;99.90;;;;;;5092021;28;19927;-56
2021/09/17 03:02:08;;;;;;;;;;;20.40;99.90;;;;;;5093765;28;19919;-53
2021/09/17 03:05:13;;;;;;;;;;;20.40;99.90;;;;;;5092307;28;19919;-52
2021/09/17 03:08:17;;;;;;;;;;;20.40;99.90;;;;;;5093215;28;19926;-52
2021/09/17 03:11:21;;;;;;;;;;;20.40;99.90;;;;;;5093550;28;19939;-55
2021/09/17 03:14:25;;;;;;;;;;;20.40;99.90;;;;;;5092438;28;19919;-53
2021/09/17 03:17:29;;;;;;;;;;;20.40;99.90;;;;;;5092284;28;20412;-53
2021/09/17 03:20:33;;;;;;;;;;;20.30;99.90;;;;;;5093623;28;19939;-51
2021/09/17 03:23:37;;;;;;;;;;;20.30;99.90;;;;;;5092122;28;19919;-55
2021/09/17 03:26:41;;;;;;;;;;;20.40;99.90;;;;;;5092150;28;19935;-55
2021/09/17 03:29:46;;;;;;;;;;;20.40;99.90;;;;;;5093253;28;19919;-53
2021/09/17 03:32:50;;;;;;;;;;;20.40;99.90;;;;;;5092333;28;19919;-56
2021/09/17 03:35:54;;;;;;;;;;;20.40;99.90;;;;;;5091452;28;19919;-56
2021/09/17 03:38:58;;;;;;;;;;;20.40;99.90;;;;;;5093042;28;19927;-52
2021/09/17 03:42:02;;;;;;;;;;;20.40;99.90;;;;;;5092027;28;19919;-57
2021/09/17 03:45:08;;;;;;;;;;;20.40;99.90;;;;;;5091841;28;19920;-53
2021/09/17 03:48:13;;;;;;;;;;;20.30;99.90;;;;;;5092739;28;19920;-55
2021/09/17 03:51:17;;;;;;;;;;;20.30;99.90;;;;;;5092699;28;20393;-53
2021/09/17 03:54:24;;;;;;;;;;;20.30;99.90;;;;;;5091756;28;19923;-56
2021/09/17 03:57:29;;;;;;;;;;;20.20;99.90;;;;;;5092003;28;19927;-56
2021/09/17 04:00:33;;;;;;;;;;;20.20;99.90;;;;;;5093001;28;20302;-53
2021/09/17 04:03:37;;;;;;;;;;;20.20;99.90;;;;;;5091567;28;19919;-52
2021/09/17 04:06:45;;;;;;;;;;;20.20;99.90;;;;;;5090988;28;19918;-55
2021/09/17 04:09:49;;;;;;;;;;;20.20;99.90;;;;;;5092141;28;19919;-55
2021/09/17 04:12:53;;;;;;;;;;;20.20;99.90;;;;;;5089107;28;19919;-53
2021/09/17 04:15:57;;;;;;;;;;;20.30;99.90;;;;;;5090694;28;19969;-54
2021/09/17 04:19:01;;;;;;;;;;;20.40;99.90;;;;;;5092571;28;19923;-56
2021/09/17 04:22:05;;;;;;;;;;;20.40;99.90;;;;;;5091661;28;19939;-56
2021/09/17 04:25:10;;;;;;;;;;;20.50;99.90;;;;;;5091375;28;19998;-52
2021/09/17 04:28:14;;;;;;;;;;;20.60;99.90;;;;;;5092189;28;19923;-56
2021/09/17 04:31:18;;;;;;;;;;;20.60;99.90;;;;;;5090240;28;19919;-53
2021/09/17 04:34:22;;;;;;;;;;;20.60;99.90;;;;;;5091032;28;20408;-53
2021/09/17 04:37:26;;;;;;;;;;;20.70;99.90;;;;;;5091103;28;19923;-52
2021/09/17 04:40:30;;;;;;;;;;;20.60;99.90;;;;;;5091382;28;19919;-52
2021/09/17 04:43:35;;;;;;;;;;;20.60;99.90;;;;;;5090894;28;20185;-52
2021/09/17 04:46:39;;;;;;;;;;;20.50;99.90;;;;;;5090668;28;19919;-56
2021/09/17 04:49:43;;;;;;;;;;;20.50;99.90;;;;;;5092221;28;19919;-55
2021/09/17 04:52:50;;;;;;;;;;;20.50;99.90;;;;;;5090745;28;19919;-52
2021/09/17 04:55:54;;;;;;;;;;;20.60;99.90;;;;;;5091346;28;20381;-57
2021/09/17 04:58:58;;;;;;;;;;;20.60;99.90;;;;;;5091961;28;20306;-56
2021/09/17 05:02:02;;;;;;;;;;;20.60;99.90;;;;;;5090558;28;20298;-53
2021/09/17 05:05:06;;;;;;;;;;;20.60;99.90;;;;;;5090634;28;19931;-52
2021/09/17 05:08:10;;;;;;;;;;;20.60;99.90;;;;;;5091442;28;19923;-52
2021/09/17 05:11:14;;;;;;;;;;;20.70;99.90;;;;;;5090136;28;20329;-54
2021/09/17 05:14:18;;;;;;;;;;;20.70;99.90;;;;;;5090746;28;19928;-53
2021/09/17 05:17:22;;;;;;;;;;;20.70;99.90;;;;;;5091109;28;19939;-57
2021/09/17 05:20:26;;;;;;;;;;;20.80;99.90;;;;;;5089435;28;19919;-55
2021/09/17 05:23:30;;;;;;;;;;;20.70;99.90;;;;;;5087492;28;19919;-51
2021/09/17 05:26:34;;;;;;;;;;;20.70;99.90;;;;;;5090888;28;19919;-54
2021/09/17 05:29:38;;;;;;;;;;;20.70;99.90;;;;;;5085925;28;19920;-51
2021/09/17 05:32:43;;;;;;;;;;;20.90;99.90;;;;;;5081804;28;19923;-53
2021/09/17 05:35:47;;;;;;;;;;;21.10;99.90;;;;;;5090588;28;19919;-52
2021/09/17 05:38:51;;;;;;;;;;;21.20;99.90;;;;;;5090606;28;19943;-53
2021/09/17 05:41:55;;;;;;;;;;;21.30;99.90;;;;;;5084220;28;20223;-53
2021/09/17 05:44:59;;;;;;;;;;;21.30;99.90;;;;;;5089900;28;19919;-55
2021/09/17 05:48:03;;;;;;;;;;;21.50;99.90;;;;;;5090690;28;20465;-57
2021/09/17 05:51:08;;;;;;;;;;;21.50;99.90;;;;;;5083515;28;19919;-54
2021/09/17 05:54:12;;;;;;;;;;;21.60;99.90;;;;;;5074807;28;20404;-53
2021/09/17 05:57:16;;;;;;;;;;;21.90;99.90;;;;;;5090221;28;19923;-53
2021/09/17 06:00:20;;;;;;;;;;;22.10;99.90;;;;;;5089616;28;19943;-56
2021/09/17 06:03:24;;;;;;;;;;;21.70;99.90;;;;;;5082917;22;19947;-48
2021/09/17 06:06:28;;;;;;;;;;;21.90;99.90;;;;;;5063408;28;19924;-47
2021/09/17 06:09:34;;;;;;;;;;;22.00;99.90;;;;;;5064804;28;19927;-48
2021/09/17 06:12:39;;;;;;;;;;;22.20;99.90;;;;;;5065459;28;19939;-47
2021/09/17 06:15:43;;;;;;;;;;;22.30;99.90;;;;;;5069106;28;19920;-47
2021/09/17 06:18:47;;;;;;;;;;;22.50;99.90;;;;;;5066658;28;19927;-48
2021/09/17 06:21:52;;;;;;;;;;;22.80;99.90;;;;;;5065708;28;19924;-48
2021/09/17 06:24:55;;;;;;;;;;;23.10;99.90;;;;;;5067856;28;19919;-47
2021/09/17 06:28:00;;;;;;;;;;;23.20;99.90;;;;;;5068893;28;19919;-49
2021/09/17 06:31:04;;;;;;;;;;;22.70;99.90;;;;;;5066021;28;19924;-47
2021/09/17 06:34:08;;;;;;;;;;;22.80;99.90;;;;;;5066609;28;19919;-48
2021/09/17 06:37:12;;;;;;;;;;;22.90;99.90;;;;;;5068199;28;19924;-47
2021/09/17 06:40:17;;;;;;;;;;;23.10;99.90;;;;;;5060309;28;19947;-47
2021/09/17 06:43:21;;;;;;;;;;;23.10;99.90;;;;;;5057460;28;19922;-49
2021/09/17 06:46:26;;;;;;;;;;;23.30;99.90;;;;;;5060626;28;19919;-47
2021/09/17 06:49:29;;;;;;;;;;;23.50;99.90;;;;;;5054739;28;19920;-48
2021/09/17 06:52:33;;;;;;;;;;;23.50;99.90;;;;;;5051431;28;19924;-49
2021/09/17 06:55:38;;;;;;;;;;;23.50;99.90;;;;;;5060311;28;19919;-47
2021/09/17 06:58:42;;;;;;;;;;;23.40;99.90;;;;;;5067154;28;19947;-48
2021/09/17 07:01:46;;;;;;;;;;;23.20;99.90;;;;;;5056414;28;19944;-47
2021/09/17 07:04:50;;;;;;;;;;;23.00;99.90;;;;;;5063736;28;19931;-48
2021/09/17 07:08:01;;;;;;;;;;;23.10;99.90;;;;;;5064549;28;19919;-47
2021/09/17 07:11:04;;;;;;;;;;;23.30;99.90;;;;;;5063342;28;19927;-48
2021/09/17 07:14:09;;;;;;;;;;;24.50;99.90;;;;;;5059952;28;19924;-46
2021/09/17 07:17:12;;;;;;;;;;;26.40;99.90;;;;;;5068154;28;19919;-50
2021/09/17 07:20:16;;;;;;;;;;;28.60;99.90;;;;;;5067261;28;20314;-47
2021/09/17 07:23:20;;;;;;;;;;;29.60;99.90;;;;;;5060360;28;20433;-48
2021/09/17 07:26:24;;;;;;;;;;;28.70;99.90;;;;;;5067806;28;19920;-48
2021/09/17 07:29:28;;;;;;;;;;;28.90;99.90;;;;;;5067614;28;19924;-48
2021/09/17 07:32:33;;;;;;;;;;;29.50;99.90;;;;;;5068634;28;19931;-48
2021/09/17 07:35:36;;;;;;;;;;;29.70;99.90;;;;;;5067969;28;19919;-48
2021/09/17 07:38:40;;;;;;;;;;;29.20;99.90;;;;;;5064016;28;20295;-50
2021/09/17 07:41:44;;;;;;;;;;;28.10;99.90;;;;;;5068339;28;19927;-49
2021/09/17 07:44:48;;;;;;;;;;;27.10;99.90;;;;;;5071790;28;19919;-47
2021/09/17 07:47:54;;;;;;;;;;;26.50;99.90;;;;;;5065981;28;19923;-47
2021/09/17 07:50:58;;;;;;;;;;;25.30;99.90;;;;;;5063467;28;19919;-47
2021/09/17 07:54:02;;;;;;;;;;;24.10;99.90;;;;;;5069857;28;20298;-48
2021/09/17 07:57:06;;;;;;;;;;;25.10;99.90;;;;;;5065331;28;20459;-48
2021/09/17 08:00:11;;;;;;;;;;;26.20;99.90;;;;;;5069299;28;19991;-51
2021/09/17 08:03:15;;;;;;;;;;;27.00;99.90;;;;;;5069561;28;19932;-47
2021/09/17 08:06:19;;;;;;;;;;;27.30;99.90;;;;;;5068640;28;19935;-48
2021/09/17 08:09:23;;;;;;;;;;;27.80;99.90;;;;;;5068275;28;20314;-47
2021/09/17 08:12:28;;;;;;;;;;;27.60;99.90;;;;;;5067536;28;20400;-47
2021/09/17 08:15:32;;;;;;;;;;;27.00;99.90;;;;;;5068117;28;19919;-48
2021/09/17 08:18:36;;;;;;;;;;;26.70;99.90;;;;;;5069367;28;19924;-47
2021/09/17 08:21:43;;;;;;;;;;;28.20;99.90;;;;;;5068229;28;19924;-50
2021/09/17 08:24:47;;;;;;;;;;;30.60;98.10;;;;;;5060071;28;20314;-51
2021/09/17 08:27:51;;;;;;;;;;;32.10;95.30;;;;;;5065729;28;19928;-48
2021/09/17 08:30:57;;;;;;;;;;;31.90;92.80;;;;;;5069398;28;19927;-48
2021/09/17 08:34:22;;;;;;;;;;;31.20;94.10;;;;;;5064324;28;20401;-50
2021/09/17 08:37:46;;;;;;;;;;;32.60;92.10;;;;;;5062014;28;19919;-48
2021/09/17 08:41:04;;;;;;;;;;;34.70;91.10;;;;;;5063995;28;19921;-48
2021/09/17 08:44:08;;;;;;;;;;;34.40;85.50;;;;;;5062859;28;19924;-49
2021/09/17 08:47:15;;;;;;;;;;;32.70;90.40;;;;;;5063997;28;19931;-48
2021/09/17 08:50:20;;;;;;;;;;;33.20;89.40;;;;;;5060869;28;19963;-49
2021/09/17 08:53:25;;;;;;;;;;;32.40;90.40;;;;;;5063621;28;19928;-48
2021/09/17 08:56:30;;;;;;;;;;;31.30;90.60;;;;;;5068638;28;20299;-47
2021/09/17 08:59:34;;;;;;;;;;;30.30;92.00;;;;;;5063263;28;20398;-48
2021/09/17 09:02:45;;;;;;;;;;;30.90;91.80;;;;;;5064907;28;19923;-48
2021/09/17 09:05:49;;;;;;;;;;;31.70;91.30;;;;;;5066411;28;19947;-49
2021/09/17 09:08:55;;;;;;;;;;;31.70;90.30;;;;;;5053306;28;20298;-47
2021/09/17 09:11:59;;;;;;;;;;;31.10;91.60;;;;;;5059985;28;19944;-48
2021/09/17 09:15:13;;;;;;;;;;;32.50;90.20;;;;;;5065343;28;19923;-49
2021/09/17 09:18:18;;;;;;;;;;;31.50;89.80;;;;;;5059355;28;19923;-48
2021/09/17 09:21:30;;;;;;;;;;;32.60;87.80;;;;;;5060161;28;19919;-47
2021/09/17 09:24:39;;;;;;;;;;;32.10;88.10;;;;;;5058857;28;20302;-47
2021/09/17 09:27:43;;;;;;;;;;;31.00;89.10;;;;;;5067718;28;19919;-48
2021/09/17 09:30:47;;;;;;;;;;;29.70;90.80;;;;;;5063015;28;19935;-52
2021/09/17 09:33:53;;;;;;;;;;;32.50;88.30;;;;;;5066882;28;19928;-48
2021/09/17 09:37:04;;;;;;;;;;;32.40;87.30;;;;;;5068176;28;19916;-48
2021/09/17 09:40:17;;;;;;;;;;;32.90;86.10;;;;;;5066869;28;19958;-48
2021/09/17 09:43:28;;;;;;;;;;;31.80;86.60;;;;;;5063148;28;19940;-48
2021/09/17 09:46:33;;;;;;;;;;;29.00;90.40;;;;;;5066260;28;19920;-47
2021/09/17 09:49:41;;;;;;;;;;;27.70;92.10;;;;;;5069348;28;19943;-47
2021/09/17 09:52:45;;;;;;;;;;;27.20;93.30;;;;;;5062662;28;20294;-46
2021/09/17 09:55:50;;;;;;;;;;;26.80;94.40;;;;;;5069738;28;20421;-47
2021/09/17 09:58:54;;;;;;;;;;;26.30;95.20;;;;;;5070096;28;19927;-47
2021/09/17 10:02:00;;;;;;;;;;;26.80;95.40;;;;;;5065296;28;20409;-46
2021/09/17 10:05:05;;;;;;;;;;;27.20;94.60;;;;;;5069610;28;19919;-47
2021/09/17 10:08:11;;;;;;;;;;;28.00;94.30;;;;;;5049992;28;20517;-48
2021/09/17 10:11:15;;;;;;;;;;;28.50;94.00;;;;;;5064375;28;19920;-47
2021/09/17 10:14:19;;;;;;;;;;;28.70;94.30;;;;;;5055265;28;19919;-47
2021/09/17 10:17:28;;;;;;;;;;;28.80;94.30;;;;;;5068487;28;19927;-49
2021/09/17 10:20:37;;;;;;;;;;;28.60;94.70;;;;;;5065783;28;19924;-47
2021/09/17 10:23:44;;;;;;;;;;;28.70;95.00;;;;;;5068852;28;20316;-47
2021/09/17 10:26:58;;;;;;;;;;;31.20;93.50;;;;;;5069609;28;19983;-47
2021/09/17 10:30:04;;;;;;;;;;;35.20;88.90;;;;;;5049960;28;19920;-48
2021/09/17 10:33:25;;;;;;;;;;;35.00;82.60;;;;;;5063445;28;19935;-48
2021/09/17 10:36:43;;;;;;;;;;;30.90;89.40;;;;;;5068662;28;19943;-47
2021/09/17 10:40:04;;;;;;;;;;;29.70;90.50;;;;;;5069994;28;19943;-48
2021/09/17 10:43:08;;;;;;;;;;;31.70;90.50;;;;;;5062873;28;20397;-48
2021/09/17 10:46:21;;;;;;;;;;;33.20;84.90;;;;;;5066069;28;19936;-47
2021/09/17 10:49:45;;;;;;;;;;;32.20;85.70;;;;;;5067847;28;19935;-47
2021/09/17 10:52:50;;;;;;;;;;;32.00;86.80;;;;;;5065948;28;20305;-47
2021/09/17 10:56:02;;;;;;;;;;;31.00;89.00;;;;;;5058637;28;20283;-48
2021/09/17 10:59:21;;;;;;;;;;;30.70;92.50;;;;;;5059212;28;19923;-47
2021/09/17 11:02:41;;;;;;;;;;;30.10;94.20;;;;;;5068863;28;19927;-47
2021/09/17 11:05:45;;;;;;;;;;;30.90;95.10;;;;;;5058751;28;19924;-49
2021/09/17 11:08:50;;;;;;;;;;;32.40;93.10;;;;;;5056251;28;19947;-49
2021/09/17 11:11:55;;;;;;;;;;;34.30;92.00;;;;;;5061071;28;19920;-50
2021/09/17 11:15:00;;;;;;;;;;;34.80;90.70;;;;;;5061646;28;19928;-49
2021/09/17 11:18:15;;;;;;;;;;;34.60;90.60;;;;;;5061270;28;19935;-50
2021/09/17 11:21:20;;;;;;;;;;;33.80;91.00;;;;;;5063392;28;19928;-47
2021/09/17 11:24:28;;;;;;;;;;;33.00;91.10;;;;;;5053329;28;20389;-49
2021/09/17 11:27:32;;;;;;;;;;;32.80;91.80;;;;;;5070849;28;19920;-48
2021/09/17 11:30:36;;;;;;;;;;;34.20;90.40;;;;;;5069912;28;20570;-48
2021/09/17 11:33:41;;;;;;;;;;;34.50;88.90;;;;;;5070405;28;19928;-48
2021/09/17 11:36:45;;;;;;;;;;;33.50;90.20;;;;;;5068280;28;19923;-50
2021/09/17 11:39:49;;;;;;;;;;;32.50;90.80;;;;;;5066634;28;20405;-47
2021/09/17 11:42:54;;;;;;;;;;;32.10;90.80;;;;;;5069832;28;19920;-48
2021/09/17 11:45:58;;;;;;;;;;;32.70;90.40;;;;;;5070202;28;19935;-50
2021/09/17 11:49:03;;;;;;;;;;;33.00;90.00;;;;;;5068567;28;19939;-47
2021/09/17 11:52:09;;;;;;;;;;;32.90;89.40;;;;;;5071547;28;19923;-49
2021/09/17 11:55:15;;;;;;;;;;;32.20;89.60;;;;;;5070925;28;20314;-47
2021/09/17 11:58:19;;;;;;;;;;;30.30;90.60;;;;;;5064469;28;19923;-47
2021/09/17 12:01:25;;;;;;;;;;;29.10;92.70;;;;;;5068346;28;20326;-49
2021/09/17 12:04:29;;;;;;;;;;;31.70;90.80;;;;;;5075074;22;19939;-52
2021/09/17 12:07:34;;;;;;;;;;;35.00;84.60;;;;;;5048081;28;20290;-54
2021/09/17 12:10:39;;;;;;;;;;;35.90;82.30;;;;;;5047499;28;19920;-53
2021/09/17 12:13:46;;;;;;;;;;;35.20;82.80;;;;;;5051071;28;19923;-54
2021/09/17 12:16:49;;;;;;;;;;;35.30;83.70;;;;;;5044449;28;19920;-55
2021/09/17 12:20:04;;;;;;;;;;;35.20;82.70;;;;;;5038734;28;20620;-53
2021/09/17 12:23:10;;;;;;;;;;;34.50;87.00;;;;;;5045387;28;19924;-52
2021/09/17 12:26:15;;;;;;;;;;;34.60;85.80;;;;;;5045043;28;19928;-52
2021/09/17 12:29:19;;;;;;;;;;;36.30;84.00;;;;;;5045229;28;19920;-55
2021/09/17 12:32:23;;;;;;;;;;;38.10;81.80;;;;;;5039587;28;19920;-54
2021/09/17 12:35:29;;;;;;;;;;;39.40;79.60;;;;;;5048494;28;19944;-52
2021/09/17 12:38:33;;;;;;;;;;;40.10;77.60;;;;;;5039547;28;20306;-55
2021/09/17 12:41:37;;;;;;;;;;;40.30;76.70;;;;;;5037361;28;19921;-57
2021/09/17 12:44:41;;;;;;;;;;;38.90;77.50;;;;;;5040828;28;19924;-53
2021/09/17 12:47:50;;;;;;;;;;;39.90;77.30;;;;;;5046501;28;19916;-53
2021/09/17 12:50:55;;;;;;;;;;;41.10;74.90;;;;;;5041519;28;19919;-53
2021/09/17 12:54:08;;;;;;;;;;;40.00;75.10;;;;;;5042783;28;19920;-52
2021/09/17 12:57:12;;;;;;;;;;;39.60;74.70;;;;;;5042910;28;19924;-56
2021/09/17 13:00:16;;;;;;;;;;;39.50;75.10;;;;;;5044995;28;19924;-56
2021/09/17 13:03:20;;;;;;;;;;;39.60;72.30;;;;;;5042943;28;19920;-57
2021/09/17 13:06:24;;;;;;;;;;;40.40;72.50;;;;;;5039195;28;19924;-56
2021/09/17 13:09:28;;;;;;;;;;;39.70;70.20;;;;;;5049395;28;19919;-55
2021/09/17 13:12:31;;;;;;;;;;;35.90;72.30;;;;;;5050423;28;19931;-52
2021/09/17 13:15:36;;;;;;;;;;;31.90;78.20;;;;;;5041976;28;19932;-52
2021/09/17 13:18:40;;;;;;;;;;;31.30;82.10;;;;;;5045349;28;20299;-54
2021/09/17 13:21:44;;;;;;;;;;;31.00;86.00;;;;;;5040295;28;20035;-55
2021/09/17 13:24:49;;;;;;;;;;;30.90;86.30;;;;;;5044362;28;19928;-54
2021/09/17 13:27:54;;;;;;;;;;;31.00;87.00;;;;;;5042134;28;19920;-55
2021/09/17 13:30:58;;;;;;;;;;;31.00;87.40;;;;;;5044556;28;19928;-54
2021/09/17 13:34:02;;;;;;;;;;;31.00;87.40;;;;;;5038304;28;20415;-54
2021/09/17 13:37:06;;;;;;;;;;;31.00;85.60;;;;;;5046313;28;19923;-53
2021/09/17 13:40:12;;;;;;;;;;;30.90;85.00;;;;;;5043151;28;19928;-54
2021/09/17 13:43:16;;;;;;;;;;;30.50;85.30;;;;;;5030191;28;20295;-53
2021/09/17 13:46:21;;;;;;;;;;;30.20;86.70;;;;;;5048741;28;19927;-52
2021/09/17 13:49:25;;;;;;;;;;;29.90;88.20;;;;;;5037865;28;19932;-52
2021/09/17 13:52:29;;;;;;;;;;;29.90;88.40;;;;;;5049835;28;19920;-52
2021/09/17 13:55:33;;;;;;;;;;;30.20;88.20;;;;;;5048500;28;19920;-56
2021/09/17 13:58:37;;;;;;;;;;;30.30;87.70;;;;;;5048745;28;19943;-55
2021/09/17 14:01:41;;;;;;;;;;;30.00;88.10;;;;;;5044900;28;19920;-57
2021/09/17 14:04:45;;;;;;;;;;;29.90;88.40;;;;;;5047313;28;19924;-50
2021/09/17 14:07:49;;;;;;;;;;;30.20;88.20;;;;;;5048966;28;19919;-50
2021/09/17 14:10:53;;;;;;;;;;;30.10;87.10;;;;;;5048619;28;19920;-53
2021/09/17 14:13:57;;;;;;;;;;;29.90;86.70;;;;;;5047109;28;19920;-55
2021/09/17 14:17:01;;;;;;;;;;;30.40;86.80;;;;;;5047507;28;19924;-56
2021/09/17 14:20:05;;;;;;;;;;;31.80;84.70;;;;;;5031958;28;19928;-56
2021/09/17 14:23:09;;;;;;;;;;;32.80;82.50;;;;;;5039256;28;19936;-53
2021/09/17 14:26:13;;;;;;;;;;;30.00;85.10;;;;;;5048880;28;19920;-54
2021/09/17 14:29:17;;;;;;;;;;;30.80;85.70;;;;;;5036927;28;19920;-56
2021/09/17 14:32:23;;;;;;;;;;;31.30;85.40;;;;;;5048105;28;19920;-54
2021/09/17 14:35:27;;;;;;;;;;;32.00;84.30;;;;;;5040962;28;20414;-53
2021/09/17 14:38:31;;;;;;;;;;;32.00;83.90;;;;;;5037065;28;19928;-54
2021/09/17 14:41:35;;;;;;;;;;;31.40;85.00;;;;;;5044069;28;19924;-52
2021/09/17 14:44:40;;;;;;;;;;;31.10;85.40;;;;;;5040661;28;19920;-54
2021/09/17 14:47:44;;;;;;;;;;;31.10;85.20;;;;;;5035725;28;19939;-53
2021/09/17 14:50:48;;;;;;;;;;;31.30;85.20;;;;;;5046976;28;19920;-53
2021/09/17 14:53:52;;;;;;;;;;;31.20;85.10;;;;;;5045340;28;20330;-53
2021/09/17 14:56:56;;;;;;;;;;;30.90;85.50;;;;;;5043991;28;19928;-52
2021/09/17 15:00:00;;;;;;;;;;;30.70;86.50;;;;;;5039589;28;19924;-53
2021/09/17 15:03:04;;;;;;;;;;;30.20;87.20;;;;;;5052124;28;19928;-53
2021/09/17 15:06:08;;;;;;;;;;;30.20;87.60;;;;;;5044222;28;19928;-58
2021/09/17 15:09:12;;;;;;;;;;;30.00;87.00;;;;;;5049725;28;19919;-58
2021/09/17 15:12:16;;;;;;;;;;;30.30;85.70;;;;;;5053238;28;19920;-53
2021/09/17 15:15:20;;;;;;;;;;;30.40;85.20;;;;;;5051879;28;19939;-54
2021/09/17 15:18:24;;;;;;;;;;;30.30;86.10;;;;;;5051293;28;19923;-55
2021/09/17 15:21:28;;;;;;;;;;;29.80;87.10;;;;;;5051377;28;20630;-55
2021/09/17 15:24:32;;;;;;;;;;;29.60;87.10;;;;;;5050836;28;19924;-55
2021/09/17 15:27:36;;;;;;;;;;;29.30;87.70;;;;;;5047051;28;20401;-52
2021/09/17 15:30:41;;;;;;;;;;;29.40;88.40;;;;;;5048155;28;19928;-52
2021/09/17 15:33:45;;;;;;;;;;;28.90;88.30;;;;;;5047265;28;19920;-52
2021/09/17 15:36:50;;;;;;;;;;;28.00;89.80;;;;;;5062574;28;19925;-52
2021/09/17 15:39:54;;;;;;;;;;;27.90;89.50;;;;;;5051992;28;19935;-55
2021/09/17 15:42:58;;;;;;;;;;;27.90;89.90;;;;;;5051932;28;19921;-53
2021/09/17 15:46:03;;;;;;;;;;;27.80;89.50;;;;;;5051352;28;19924;-52
2021/09/17 15:49:07;;;;;;;;;;;27.80;88.30;;;;;;5052357;28;19923;-51
2021/09/17 15:52:11;;;;;;;;;;;27.40;88.70;;;;;;5052710;28;20406;-52
2021/09/17 15:55:15;;;;;;;;;;;27.10;89.70;;;;;;5050305;28;19924;-51
2021/09/17 15:58:19;;;;;;;;;;;26.80;90.30;;;;;;5051113;28;19919;-52
2021/09/17 16:01:23;;;;;;;;;;;26.80;90.10;;;;;;5051594;28;19928;-52
2021/09/17 16:04:27;;;;;;;;;;;26.90;90.40;;;;;;5050298;28;20303;-51
2021/09/17 16:07:31;;;;;;;;;;;26.70;90.60;;;;;;5051085;28;19928;-51
2021/09/17 16:10:35;;;;;;;;;;;26.70;90.80;;;;;;5052739;28;20287;-53
2021/09/17 16:13:39;;;;;;;;;;;26.60;90.90;;;;;;5039083;28;19940;-52
2021/09/17 16:16:43;;;;;;;;;;;26.60;90.80;;;;;;5050577;28;19943;-52
2021/09/17 16:19:49;;;;;;;;;;;26.30;90.90;;;;;;5051311;28;19923;-51
2021/09/17 16:22:53;;;;;;;;;;;26.20;91.00;;;;;;5051099;28;19920;-52
2021/09/17 16:25:58;;;;;;;;;;;26.20;91.40;;;;;;5050653;28;19919;-52
2021/09/17 16:29:03;;;;;;;;;;;26.10;91.50;;;;;;5052053;28;20291;-54
2021/09/17 16:32:09;;;;;;;;;;;26.10;91.50;;;;;;5051563;28;20291;-55
2021/09/17 16:35:14;;;;;;;;;;;25.90;91.50;;;;;;5050314;28;19924;-52
2021/09/17 16:38:19;;;;;;;;;;;25.90;91.80;;;;;;5051193;28;19935;-56
2021/09/17 16:41:24;;;;;;;;;;;25.90;91.50;;;;;;5051760;28;19924;-53
2021/09/17 16:44:28;;;;;;;;;;;25.70;91.60;;;;;;5049638;28;19920;-52
2021/09/17 16:47:32;;;;;;;;;;;25.60;91.80;;;;;;5050567;28;20402;-53
2021/09/17 16:50:36;;;;;;;;;;;25.60;92.30;;;;;;5051692;28;19920;-52
2021/09/17 16:53:40;;;;;;;;;;;25.40;92.60;;;;;;5050135;28;19946;-52
2021/09/17 16:56:44;;;;;;;;;;;25.30;92.80;;;;;;5050161;28;20310;-53
2021/09/17 16:59:48;;;;;;;;;;;25.10;92.90;;;;;;5051375;28;19923;-52
2021/09/17 17:02:52;;;;;;;;;;;25.00;93.10;;;;;;5050432;28;19920;-51
2021/09/17 17:05:58;;;;;;;;;;;24.90;93.10;;;;;;5049966;28;20687;-51
2021/09/17 17:09:02;;;;;;;;;;;24.80;93.20;;;;;;5051138;28;19923;-51
2021/09/17 17:12:06;;;;;;;;;;;24.70;93.30;;;;;;5050313;28;19995;-52
2021/09/17 17:15:11;;;;;;;;;;;24.60;93.50;;;;;;5048940;28;19924;-53
2021/09/17 17:18:15;;;;;;;;;;;24.40;93.90;;;;;;5049861;28;19920;-53
2021/09/17 17:21:20;;;;;;;;;;;24.20;94.20;;;;;;5050741;28;20413;-54
2021/09/17 17:24:25;;;;;;;;;;;24.00;94.40;;;;;;5048749;28;19924;-53
2021/09/17 17:27:29;;;;;;;;;;;23.90;94.60;;;;;;5050049;28;19920;-53
2021/09/17 17:30:33;;;;;;;;;;;23.90;94.90;;;;;;5050779;28;19920;-53
2021/09/17 17:33:38;;;;;;;;;;;23.70;95.20;;;;;;5049767;28;19924;-59
2021/09/17 17:36:41;;;;;;;;;;;23.60;95.30;;;;;;5049808;28;19939;-53
2021/09/17 17:39:45;;;;;;;;;;;23.50;95.60;;;;;;5038534;28;19923;-53
2021/09/17 17:42:50;;;;;;;;;;;23.40;96.00;;;;;;5049390;28;19920;-55
2021/09/17 17:45:55;;;;;;;;;;;23.30;96.30;;;;;;5049036;28;19920;-53
2021/09/17 17:49:00;;;;;;;;;;;23.10;96.50;;;;;;5050779;28;19924;-55
2021/09/17 17:52:05;;;;;;;;;;;23.00;96.90;;;;;;5049307;28;19924;-53
2021/09/17 17:55:10;;;;;;;;;;;22.90;97.20;;;;;;5049467;28;19920;-53